This is the latest recevied weather packets stored in our database for station/object ON4CCM-13. If no packets are shown the sender has not sent any weather packets the latest 10 day(s).
| Time | Temp. | Humidity | Pressure | Rain* | Wind** | Luminosity | Snow |
|---|---|---|---|---|---|---|---|
| 1777501259 | 13.33° C | - | 1028 hPa | 0 mm | - | - | - |
| 1777495825 | 14.44° C | - | 1027.7 hPa | 0 mm | - | - | - |
| 1777493471 | 15° C | - | 1027.4 hPa | 0 mm | - | - | - |
| 1777492869 | 15° C | - | 1027.3 hPa | 0 mm | - | - | - |
| 1777491058 | 15.56° C | - | 1027.1 hPa | 0 mm | - | - | - |
| 1777488641 | 16.67° C | - | 1026.7 hPa | 0 mm | - | - | - |
| 1777483292 | 18.89° C | - | 1026.2 hPa | 0 mm | - | - | - |
| 1777480246 | 19.44° C | - | 1026.3 hPa | 0 mm | - | - | - |
| 1777477855 | 20° C | - | 1026.1 hPa | 0 mm | - | - | - |
| 1777471252 | 20.56° C | - | 1026.5 hPa | 0 mm | - | - | - |
| 1777462863 | 19.44° C | - | 1027 hPa | 0 mm | - | - | - |
| 1777456216 | 17.22° C | - | 1027.6 hPa | 0 mm | - | - | - |
| 1777453863 | 17.22° C | - | 1027.6 hPa | 0 mm | - | - | - |
| 1777453279 | 17.22° C | - | 1027.7 hPa | 0 mm | - | - | - |
| 1777450261 | 15.56° C | - | 1027.7 hPa | 0 mm | - | - | - |
| 1777449637 | 15.56° C | - | 1027.8 hPa | 0 mm | - | - | - |
| 1777441847 | 11.11° C | 19% | 1027.1 hPa | 0 mm | - | - | - |
| 1777440038 | 8.33° C | 27% | 1026.9 hPa | 0 mm | - | - | - |
| 1777439433 | 8.33° C | 27% | 1026.9 hPa | 0 mm | - | - | - |
| 1777438831 | 8.33° C | 27% | 1026.8 hPa | 0 mm | - | - | - |
| 1777436474 | 8.89° C | 26% | 1026.7 hPa | 0 mm | - | - | - |
| 1777435911 | 8.89° C | 26% | 1026.6 hPa | 0 mm | - | - | - |
| 1777429834 | 10° C | 19% | 1026.3 hPa | 0 mm | - | - | - |
| 1777428627 | 10.56° C | 17% | 1026.1 hPa | 0 mm | - | - | - |
| 1777425066 | 11.67° C | 11% | 1026 hPa | 0 mm | - | - | - |
* Rain latest hour (hover to see other rain measurements)
** Current wind speed in m/s (hover to see current wind gust speed)